CPA565 RJBB-RCTP
Flight info
| Callsign | CPA565 |
|---|---|
| Flight time | 2h 27m |
| Altitude | 38000 |
| Route | N0480F380 OMGOR Y34 HKC Y50 IGMON A1 DRAKE DRAKE1A |
| Aircraft | B773/H-SDE1E2E3FGHIJ2J3J4J5M1RWXYZ/LB1D1 |
Departure
| Time | 2026-05-08 05:17 |
|---|---|
| Airport | Kansai International Airport (RJBB) |
Arrival
| Time | 2026-05-08 07:45 |
|---|---|
| Airport | Taiwan Taoyuan International Airport (RCTP) |
| Time | Latitude | Longitude | Altitude | Speed | Heading |
|---|---|---|---|---|---|
| 2026-05-08 04:10 | 34.43369 | 135.24558 | 27 ft | 0 kts | 321° |
| 2026-05-08 04:57 | 34.43353 | 135.24574 | 27 ft | 4 kts | 321° |
| 2026-05-08 04:57 | 34.43331 | 135.24591 | 27 ft | 4 kts | 345° |
| 2026-05-08 04:58 | 34.43307 | 135.24591 | 26 ft | 4 kts | 29° |
| 2026-05-08 04:58 | 34.43290 | 135.24575 | 28 ft | 0 kts | 51° |
| 2026-05-08 05:07 | 34.43298 | 135.24589 | 27 ft | 7 kts | 58° |
| 2026-05-08 05:07 | 34.43295 | 135.24643 | 27 ft | 8 kts | 126° |
| 2026-05-08 05:07 | 34.43284 | 135.24699 | 27 ft | 10 kts | 73° |
| 2026-05-08 05:08 | 34.43351 | 135.24811 | 25 ft | 18 kts | 49° |
| 2026-05-08 05:08 | 34.43431 | 135.24930 | 26 ft | 18 kts | 51° |
| 2026-05-08 05:08 | 34.43509 | 135.25047 | 28 ft | 18 kts | 51° |
| 2026-05-08 05:08 | 34.43589 | 135.25167 | 26 ft | 18 kts | 51° |
| 2026-05-08 05:09 | 34.43669 | 135.25286 | 27 ft | 18 kts | 51° |
| 2026-05-08 05:09 | 34.43749 | 135.25405 | 26 ft | 18 kts | 51° |
| 2026-05-08 05:09 | 34.43829 | 135.25524 | 27 ft | 18 kts | 53° |
| 2026-05-08 05:09 | 34.43839 | 135.25657 | 27 ft | 16 kts | 94° |
| 2026-05-08 05:10 | 34.43826 | 135.25754 | 28 ft | 9 kts | 121° |
| 2026-05-08 05:10 | 34.43802 | 135.25786 | 27 ft | 0 kts | 140° |
| 2026-05-08 05:16 | 34.43799 | 135.25789 | 28 ft | 5 kts | 140° |
| 2026-05-08 05:16 | 34.43724 | 135.25861 | 27 ft | 11 kts | 159° |
| 2026-05-08 05:16 | 34.43684 | 135.25833 | 32 ft | 7 kts | 241° |
| 2026-05-08 05:16 | 34.43676 | 135.25817 | 30 ft | 0 kts | 233° |
| 2026-05-08 05:17 | 34.43640 | 135.25761 | 30 ft | 26 kts | 231° |
| 2026-05-08 05:17 | 34.43347 | 135.25324 | 20 ft | 108 kts | 231° |
| 2026-05-08 05:17 | 34.42716 | 135.24385 | 41 ft | 173 kts | 231° |
| 2026-05-08 05:17 | 34.41958 | 135.23269 | 790 ft | 172 kts | 234° |
| 2026-05-08 05:18 | 34.41240 | 135.22108 | 1532 ft | 181 kts | 240° |
| 2026-05-08 05:18 | 34.40485 | 135.20717 | 1794 ft | 213 kts | 240° |
| 2026-05-08 05:18 | 34.39620 | 135.19124 | 2278 ft | 233 kts | 241° |
| 2026-05-08 05:18 | 34.38717 | 135.17485 | 3332 ft | 235 kts | 239° |
| 2026-05-08 05:19 | 34.37818 | 135.15798 | 4358 ft | 241 kts | 245° |
| 2026-05-08 05:19 | 34.37313 | 135.13863 | 5405 ft | 247 kts | 269° |
| 2026-05-08 05:19 | 34.37679 | 135.11839 | 6523 ft | 257 kts | 294° |
| 2026-05-08 05:19 | 34.38806 | 135.10091 | 7683 ft | 266 kts | 311° |
| 2026-05-08 05:20 | 34.40183 | 135.08536 | 8965 ft | 273 kts | 308° |
| 2026-05-08 05:20 | 34.41479 | 135.06856 | 10055 ft | 273 kts | 304° |
| 2026-05-08 05:20 | 34.42488 | 135.04901 | 10947 ft | 283 kts | 287° |
| 2026-05-08 05:20 | 34.42926 | 135.02464 | 11293 ft | 313 kts | 268° |
| 2026-05-08 05:21 | 34.42524 | 134.99780 | 11750 ft | 335 kts | 250° |
| 2026-05-08 05:21 | 34.41609 | 134.97171 | 12969 ft | 336 kts | 245° |
| 2026-05-08 05:21 | 34.40571 | 134.94619 | 14094 ft | 339 kts | 244° |
| 2026-05-08 05:21 | 34.39431 | 134.92107 | 15110 ft | 342 kts | 239° |
| 2026-05-08 05:22 | 34.37979 | 134.89791 | 16083 ft | 348 kts | 232° |
| 2026-05-08 05:22 | 34.36341 | 134.87656 | 17083 ft | 352 kts | 228° |
| 2026-05-08 05:22 | 34.34534 | 134.85625 | 18036 ft | 357 kts | 227° |
| 2026-05-08 05:22 | 34.32685 | 134.83589 | 18836 ft | 361 kts | 227° |
| 2026-05-08 05:23 | 34.30813 | 134.81537 | 19695 ft | 364 kts | 227° |
| 2026-05-08 05:23 | 34.28931 | 134.79472 | 20566 ft | 366 kts | 227° |
| 2026-05-08 05:23 | 34.27676 | 134.78094 | 21131 ft | 368 kts | 227° |
| 2026-05-08 05:23 | 34.25760 | 134.75988 | 21820 ft | 374 kts | 227° |
| 2026-05-08 05:24 | 34.23827 | 134.73857 | 22534 ft | 378 kts | 227° |
| 2026-05-08 05:24 | 34.21232 | 134.70997 | 23515 ft | 382 kts | 227° |
| 2026-05-08 05:24 | 34.19260 | 134.68827 | 24125 ft | 385 kts | 227° |
| 2026-05-08 05:24 | 34.17923 | 134.67351 | 24521 ft | 386 kts | 227° |
| 2026-05-08 05:25 | 34.16045 | 134.65025 | 25102 ft | 387 kts | 232° |
| 2026-05-08 05:25 | 34.14328 | 134.62555 | 25602 ft | 390 kts | 235° |
| 2026-05-08 05:25 | 34.12755 | 134.59878 | 26145 ft | 393 kts | 238° |
| 2026-05-08 05:25 | 34.11209 | 134.57144 | 26737 ft | 395 kts | 238° |
| 2026-05-08 05:26 | 34.09651 | 134.54407 | 27338 ft | 397 kts | 238° |
| 2026-05-08 05:26 | 34.08079 | 134.51657 | 27873 ft | 400 kts | 238° |
| 2026-05-08 05:26 | 34.06488 | 134.48879 | 28379 ft | 404 kts | 238° |
| 2026-05-08 05:26 | 34.04886 | 134.46084 | 28873 ft | 407 kts | 238° |
| 2026-05-08 05:27 | 34.03265 | 134.43258 | 29249 ft | 411 kts | 238° |
| 2026-05-08 05:27 | 34.01627 | 134.40412 | 29722 ft | 414 kts | 238° |
| 2026-05-08 05:27 | 33.99980 | 134.37552 | 30130 ft | 417 kts | 238° |
| 2026-05-08 05:27 | 33.98321 | 134.34677 | 30610 ft | 416 kts | 238° |
| 2026-05-08 05:28 | 33.96697 | 134.31863 | 31078 ft | 413 kts | 238° |
| 2026-05-08 05:28 | 33.95060 | 134.29028 | 31535 ft | 411 kts | 238° |
| 2026-05-08 05:28 | 33.93426 | 134.26203 | 32029 ft | 409 kts | 238° |
| 2026-05-08 05:28 | 33.91796 | 134.23394 | 32407 ft | 408 kts | 237° |
| 2026-05-08 05:29 | 33.90168 | 134.20603 | 32880 ft | 405 kts | 238° |
| 2026-05-08 05:29 | 33.88545 | 134.17847 | 33560 ft | 399 kts | 237° |
| 2026-05-08 05:29 | 33.86953 | 134.15158 | 33927 ft | 399 kts | 237° |
| 2026-05-08 05:29 | 33.85338 | 134.12443 | 34258 ft | 399 kts | 237° |
| 2026-05-08 05:30 | 33.83730 | 134.09718 | 34533 ft | 399 kts | 237° |
| 2026-05-08 05:30 | 33.82120 | 134.06990 | 34809 ft | 400 kts | 237° |
| 2026-05-08 05:30 | 33.80450 | 134.04308 | 35106 ft | 400 kts | 237° |
| 2026-05-08 05:30 | 33.78828 | 134.01600 | 35489 ft | 399 kts | 238° |
| 2026-05-08 05:31 | 33.77247 | 133.98883 | 35943 ft | 395 kts | 238° |
| 2026-05-08 05:31 | 33.75669 | 133.96166 | 36189 ft | 397 kts | 238° |
| 2026-05-08 05:31 | 33.74078 | 133.93437 | 36413 ft | 399 kts | 238° |
| 2026-05-08 05:31 | 33.72476 | 133.90717 | 36682 ft | 398 kts | 238° |
| 2026-05-08 05:32 | 33.70867 | 133.88003 | 36981 ft | 398 kts | 238° |
| 2026-05-08 05:32 | 33.69259 | 133.85298 | 37284 ft | 398 kts | 238° |
| 2026-05-08 05:32 | 33.67651 | 133.82598 | 37674 ft | 396 kts | 238° |
| 2026-05-08 05:32 | 33.66066 | 133.79937 | 37788 ft | 398 kts | 238° |
| 2026-05-08 05:33 | 33.64448 | 133.77222 | 37827 ft | 399 kts | 238° |
| 2026-05-08 05:33 | 33.61224 | 133.71833 | 37772 ft | 395 kts | 238° |
| 2026-05-08 05:34 | 33.58024 | 133.66492 | 37834 ft | 393 kts | 238° |
| 2026-05-08 05:34 | 33.54825 | 133.61159 | 37834 ft | 393 kts | 238° |
| 2026-05-08 05:35 | 33.51648 | 133.55869 | 37834 ft | 394 kts | 238° |
| 2026-05-08 05:35 | 33.48444 | 133.50541 | 37842 ft | 393 kts | 238° |
| 2026-05-08 05:36 | 33.45235 | 133.45212 | 37842 ft | 394 kts | 238° |
| 2026-05-08 05:36 | 33.42012 | 133.39880 | 37880 ft | 395 kts | 238° |
| 2026-05-08 05:37 | 33.38776 | 133.34584 | 37834 ft | 397 kts | 238° |
| 2026-05-08 05:37 | 33.35509 | 133.29252 | 37861 ft | 397 kts | 238° |
| 2026-05-08 05:38 | 33.32239 | 133.23917 | 37877 ft | 398 kts | 238° |
| 2026-05-08 05:38 | 33.28962 | 133.18574 | 37891 ft | 400 kts | 238° |
| 2026-05-08 05:39 | 33.25666 | 133.13209 | 37887 ft | 400 kts | 238° |
| 2026-05-08 05:39 | 33.22389 | 133.07881 | 37891 ft | 400 kts | 238° |
| 2026-05-08 05:40 | 33.19087 | 133.02509 | 37891 ft | 400 kts | 238° |
| 2026-05-08 05:40 | 33.15777 | 132.97155 | 37875 ft | 401 kts | 238° |
| 2026-05-08 05:41 | 33.12483 | 132.91803 | 37897 ft | 403 kts | 238° |
| 2026-05-08 05:41 | 33.09133 | 132.86403 | 37903 ft | 405 kts | 237° |
| 2026-05-08 05:42 | 33.05783 | 132.80990 | 37892 ft | 403 kts | 239° |
| 2026-05-08 05:42 | 33.03302 | 132.75141 | 37904 ft | 396 kts | 250° |
| 2026-05-08 05:43 | 33.01632 | 132.68890 | 37890 ft | 394 kts | 259° |
| 2026-05-08 05:43 | 33.00887 | 132.62474 | 37922 ft | 393 kts | 261° |
| 2026-05-08 05:44 | 33.00161 | 132.56004 | 37915 ft | 394 kts | 261° |
| 2026-05-08 05:44 | 32.99397 | 132.49524 | 37917 ft | 396 kts | 261° |
| 2026-05-08 05:45 | 32.98548 | 132.43044 | 37914 ft | 395 kts | 255° |
| 2026-05-08 05:45 | 32.96525 | 132.36953 | 37906 ft | 398 kts | 246° |
| 2026-05-08 05:46 | 32.93571 | 132.31378 | 37922 ft | 404 kts | 235° |
| 2026-05-08 05:46 | 32.89944 | 132.26246 | 37919 ft | 405 kts | 234° |
| 2026-05-08 05:47 | 32.86306 | 132.21129 | 37914 ft | 405 kts | 235° |
| 2026-05-08 05:47 | 32.82681 | 132.15980 | 37911 ft | 405 kts | 235° |
| 2026-05-08 05:48 | 32.79069 | 132.10830 | 37916 ft | 405 kts | 235° |
| 2026-05-08 05:48 | 32.75475 | 132.05706 | 37872 ft | 405 kts | 235° |
| 2026-05-08 05:49 | 32.71859 | 132.00557 | 37905 ft | 406 kts | 235° |
| 2026-05-08 05:49 | 32.68232 | 131.95401 | 37912 ft | 407 kts | 235° |
| 2026-05-08 05:50 | 32.64598 | 131.90244 | 37914 ft | 406 kts | 235° |
| 2026-05-08 05:50 | 32.60991 | 131.85131 | 37905 ft | 406 kts | 235° |
| 2026-05-08 05:51 | 32.57364 | 131.79998 | 37906 ft | 406 kts | 235° |
| 2026-05-08 05:51 | 32.53722 | 131.74862 | 37928 ft | 406 kts | 235° |
| 2026-05-08 05:52 | 32.50080 | 131.69733 | 37871 ft | 406 kts | 235° |
| 2026-05-08 05:52 | 32.46473 | 131.64660 | 37908 ft | 405 kts | 235° |
| 2026-05-08 05:53 | 32.42836 | 131.59548 | 37929 ft | 405 kts | 235° |
| 2026-05-08 05:53 | 32.39199 | 131.54441 | 37935 ft | 406 kts | 235° |
| 2026-05-08 05:54 | 32.35544 | 131.49318 | 37912 ft | 407 kts | 235° |
| 2026-05-08 05:54 | 32.31886 | 131.44196 | 37930 ft | 408 kts | 234° |
| 2026-05-08 05:55 | 32.28213 | 131.39064 | 37933 ft | 409 kts | 234° |
| 2026-05-08 05:55 | 32.24547 | 131.33953 | 37947 ft | 409 kts | 234° |
| 2026-05-08 05:56 | 32.20855 | 131.28839 | 37937 ft | 410 kts | 234° |
| 2026-05-08 05:56 | 32.17161 | 131.23667 | 37945 ft | 413 kts | 234° |
| 2026-05-08 05:57 | 32.13467 | 131.18500 | 37947 ft | 415 kts | 234° |
| 2026-05-08 05:57 | 32.09715 | 131.13308 | 37910 ft | 415 kts | 232° |
| 2026-05-08 05:58 | 32.05969 | 131.08135 | 37949 ft | 414 kts | 234° |
| 2026-05-08 05:58 | 32.02254 | 131.02976 | 37955 ft | 415 kts | 234° |
| 2026-05-08 05:59 | 31.98506 | 130.97805 | 37966 ft | 414 kts | 234° |
| 2026-05-08 05:59 | 31.94758 | 130.92649 | 37956 ft | 413 kts | 234° |
| 2026-05-08 06:00 | 31.91023 | 130.87521 | 37980 ft | 412 kts | 234° |
| 2026-05-08 06:00 | 31.87288 | 130.82378 | 37982 ft | 414 kts | 234° |
| 2026-05-08 06:01 | 31.83555 | 130.77254 | 37937 ft | 415 kts | 234° |
| 2026-05-08 06:01 | 31.79789 | 130.72094 | 37953 ft | 415 kts | 234° |
| 2026-05-08 06:02 | 31.76013 | 130.66927 | 37967 ft | 416 kts | 234° |
| 2026-05-08 06:02 | 31.72260 | 130.61798 | 37976 ft | 416 kts | 234° |
| 2026-05-08 06:03 | 31.68545 | 130.56585 | 37976 ft | 413 kts | 236° |
| 2026-05-08 06:03 | 31.65035 | 130.51231 | 37981 ft | 414 kts | 237° |
| 2026-05-08 06:04 | 31.61529 | 130.45863 | 38009 ft | 415 kts | 237° |
| 2026-05-08 06:04 | 31.57997 | 130.40480 | 37999 ft | 415 kts | 237° |
| 2026-05-08 06:05 | 31.54486 | 130.35148 | 38005 ft | 416 kts | 237° |
| 2026-05-08 06:05 | 31.50947 | 130.29782 | 38002 ft | 416 kts | 237° |
| 2026-05-08 06:06 | 31.47398 | 130.24407 | 38026 ft | 416 kts | 237° |
| 2026-05-08 06:06 | 31.43873 | 130.19074 | 38015 ft | 416 kts | 237° |
| 2026-05-08 06:07 | 31.40330 | 130.13718 | 38015 ft | 415 kts | 237° |
| 2026-05-08 06:07 | 31.36778 | 130.08362 | 38019 ft | 415 kts | 237° |
| 2026-05-08 06:08 | 31.33257 | 130.03058 | 38020 ft | 415 kts | 237° |
| 2026-05-08 06:08 | 31.29712 | 129.97722 | 38028 ft | 416 kts | 237° |
| 2026-05-08 06:09 | 31.26158 | 129.92391 | 38011 ft | 416 kts | 237° |
| 2026-05-08 06:09 | 31.22596 | 129.87058 | 38025 ft | 416 kts | 237° |
| 2026-05-08 06:10 | 31.19023 | 129.81712 | 38022 ft | 417 kts | 237° |
| 2026-05-08 06:10 | 31.15465 | 129.76396 | 38006 ft | 418 kts | 237° |
| 2026-05-08 06:11 | 31.11880 | 129.71046 | 38020 ft | 418 kts | 237° |
| 2026-05-08 06:11 | 31.08288 | 129.65692 | 38031 ft | 419 kts | 237° |
| 2026-05-08 06:12 | 31.04687 | 129.60333 | 38033 ft | 419 kts | 237° |
| 2026-05-08 06:12 | 31.01085 | 129.54979 | 38002 ft | 419 kts | 237° |
| 2026-05-08 06:13 | 30.97501 | 129.49660 | 38029 ft | 419 kts | 237° |
| 2026-05-08 06:13 | 30.94500 | 129.45211 | 38037 ft | 419 kts | 237° |
| 2026-05-08 06:14 | 30.90889 | 129.39865 | 38036 ft | 420 kts | 237° |
| 2026-05-08 06:14 | 30.87274 | 129.34521 | 38018 ft | 420 kts | 237° |
| 2026-05-08 06:15 | 30.83657 | 129.29179 | 38039 ft | 420 kts | 237° |
| 2026-05-08 06:15 | 30.80063 | 129.23877 | 38039 ft | 420 kts | 237° |
| 2026-05-08 06:16 | 30.76439 | 129.18525 | 38036 ft | 420 kts | 237° |
| 2026-05-08 06:16 | 30.72888 | 129.13131 | 38011 ft | 419 kts | 238° |
| 2026-05-08 06:17 | 30.67587 | 129.05033 | 38046 ft | 420 kts | 238° |
| 2026-05-08 06:17 | 30.64067 | 128.99680 | 38044 ft | 420 kts | 238° |
| 2026-05-08 06:18 | 30.60513 | 128.94291 | 38044 ft | 420 kts | 237° |
| 2026-05-08 06:18 | 30.56955 | 128.88906 | 38067 ft | 419 kts | 238° |
| 2026-05-08 06:19 | 30.53400 | 128.83531 | 38053 ft | 420 kts | 238° |
| 2026-05-08 06:19 | 30.49856 | 128.78180 | 38051 ft | 421 kts | 237° |
| 2026-05-08 06:20 | 30.46281 | 128.72789 | 38058 ft | 421 kts | 237° |
| 2026-05-08 06:20 | 30.42706 | 128.67405 | 38054 ft | 420 kts | 237° |
| 2026-05-08 06:21 | 30.39132 | 128.62032 | 38060 ft | 421 kts | 238° |
| 2026-05-08 06:21 | 30.35572 | 128.56684 | 38057 ft | 422 kts | 237° |
| 2026-05-08 06:22 | 30.31985 | 128.51306 | 38060 ft | 422 kts | 237° |
| 2026-05-08 06:22 | 30.28393 | 128.45926 | 38058 ft | 422 kts | 237° |
| 2026-05-08 06:23 | 30.24801 | 128.40553 | 38057 ft | 422 kts | 237° |
| 2026-05-08 06:23 | 30.21203 | 128.35179 | 38063 ft | 422 kts | 237° |
| 2026-05-08 06:24 | 30.17630 | 128.29848 | 38063 ft | 422 kts | 237° |
| 2026-05-08 06:24 | 30.14030 | 128.24485 | 38065 ft | 422 kts | 237° |
| 2026-05-08 06:25 | 30.10424 | 128.19121 | 38067 ft | 422 kts | 237° |
| 2026-05-08 06:25 | 30.06815 | 128.13758 | 38069 ft | 423 kts | 237° |
| 2026-05-08 06:26 | 30.03201 | 128.08396 | 38067 ft | 423 kts | 237° |
| 2026-05-08 06:26 | 29.99586 | 128.03039 | 38037 ft | 422 kts | 237° |
| 2026-05-08 06:27 | 29.95998 | 127.97729 | 38065 ft | 422 kts | 237° |
| 2026-05-08 06:27 | 29.92388 | 127.92391 | 38083 ft | 423 kts | 237° |
| 2026-05-08 06:28 | 29.88760 | 127.87034 | 38072 ft | 423 kts | 237° |
| 2026-05-08 06:28 | 29.85126 | 127.81736 | 38025 ft | 425 kts | 236° |
| 2026-05-08 06:29 | 29.81270 | 127.76575 | 38064 ft | 425 kts | 234° |
| 2026-05-08 06:29 | 29.77379 | 127.71440 | 38092 ft | 425 kts | 235° |
| 2026-05-08 06:30 | 29.73501 | 127.66272 | 38080 ft | 426 kts | 235° |
| 2026-05-08 06:30 | 29.69636 | 127.61102 | 38030 ft | 426 kts | 234° |
| 2026-05-08 06:31 | 29.65768 | 127.55931 | 38056 ft | 426 kts | 235° |
| 2026-05-08 06:31 | 29.61927 | 127.50803 | 38084 ft | 426 kts | 235° |
| 2026-05-08 06:32 | 29.58061 | 127.45640 | 38074 ft | 426 kts | 236° |
| 2026-05-08 06:32 | 29.54356 | 127.40341 | 38072 ft | 425 kts | 237° |
| 2026-05-08 06:33 | 29.50716 | 127.34991 | 38074 ft | 425 kts | 237° |
| 2026-05-08 06:33 | 29.47056 | 127.29652 | 38074 ft | 425 kts | 237° |
| 2026-05-08 06:34 | 29.43377 | 127.24325 | 38080 ft | 426 kts | 237° |
| 2026-05-08 06:34 | 29.39712 | 127.19034 | 38086 ft | 426 kts | 237° |
| 2026-05-08 06:35 | 29.36017 | 127.13714 | 38071 ft | 425 kts | 237° |
| 2026-05-08 06:35 | 29.32322 | 127.08399 | 38074 ft | 426 kts | 237° |
| 2026-05-08 06:36 | 29.28631 | 127.03093 | 38080 ft | 426 kts | 237° |
| 2026-05-08 06:36 | 29.24949 | 126.97807 | 38095 ft | 426 kts | 237° |
| 2026-05-08 06:37 | 29.21245 | 126.92496 | 38063 ft | 426 kts | 237° |
| 2026-05-08 06:37 | 29.17531 | 126.87180 | 38070 ft | 426 kts | 237° |
| 2026-05-08 06:38 | 29.13845 | 126.81909 | 38084 ft | 427 kts | 237° |
| 2026-05-08 06:38 | 29.10132 | 126.76606 | 38077 ft | 427 kts | 237° |
| 2026-05-08 06:39 | 29.06425 | 126.71318 | 38043 ft | 427 kts | 237° |
| 2026-05-08 06:39 | 29.02708 | 126.66022 | 38062 ft | 427 kts | 237° |
| 2026-05-08 06:40 | 28.98988 | 126.60727 | 38082 ft | 427 kts | 237° |
| 2026-05-08 06:40 | 28.95236 | 126.55453 | 38084 ft | 428 kts | 236° |
| 2026-05-08 06:41 | 28.91375 | 126.50256 | 38085 ft | 429 kts | 236° |
| 2026-05-08 06:41 | 28.87527 | 126.45102 | 38072 ft | 429 kts | 236° |
| 2026-05-08 06:42 | 28.83661 | 126.39906 | 38088 ft | 429 kts | 236° |
| 2026-05-08 06:42 | 28.79799 | 126.34707 | 38086 ft | 429 kts | 236° |
| 2026-05-08 06:43 | 28.75930 | 126.29505 | 38067 ft | 429 kts | 236° |
| 2026-05-08 06:43 | 28.72063 | 126.24312 | 38064 ft | 429 kts | 236° |
| 2026-05-08 06:44 | 28.68217 | 126.19152 | 38077 ft | 430 kts | 236° |
| 2026-05-08 06:44 | 28.64334 | 126.13951 | 38077 ft | 430 kts | 236° |
| 2026-05-08 06:45 | 28.60535 | 126.08727 | 38077 ft | 430 kts | 237° |
| 2026-05-08 06:45 | 28.56801 | 126.03426 | 38077 ft | 430 kts | 237° |
| 2026-05-08 06:46 | 28.53061 | 125.98123 | 38073 ft | 430 kts | 237° |
| 2026-05-08 06:46 | 28.49297 | 125.92815 | 38076 ft | 430 kts | 237° |
| 2026-05-08 06:47 | 28.45548 | 125.87547 | 38073 ft | 430 kts | 237° |
| 2026-05-08 06:47 | 28.41763 | 125.82237 | 38074 ft | 430 kts | 237° |
| 2026-05-08 06:48 | 28.38018 | 125.76989 | 38072 ft | 430 kts | 237° |
| 2026-05-08 06:48 | 28.34244 | 125.71708 | 38080 ft | 430 kts | 237° |
| 2026-05-08 06:49 | 28.30461 | 125.66419 | 38076 ft | 431 kts | 237° |
| 2026-05-08 06:49 | 28.26699 | 125.61167 | 38076 ft | 431 kts | 237° |
| 2026-05-08 06:50 | 28.22913 | 125.55888 | 38046 ft | 431 kts | 237° |
| 2026-05-08 06:50 | 28.19122 | 125.50608 | 38069 ft | 431 kts | 237° |
| 2026-05-08 06:51 | 28.15325 | 125.45325 | 38081 ft | 432 kts | 237° |
| 2026-05-08 06:51 | 28.11540 | 125.40067 | 38074 ft | 433 kts | 237° |
| 2026-05-08 06:52 | 28.07723 | 125.34772 | 38075 ft | 433 kts | 237° |
| 2026-05-08 06:52 | 28.03908 | 125.29485 | 38066 ft | 432 kts | 237° |
| 2026-05-08 06:53 | 28.00121 | 125.24243 | 38080 ft | 433 kts | 237° |
| 2026-05-08 06:53 | 27.96300 | 125.18961 | 38074 ft | 434 kts | 237° |
| 2026-05-08 06:54 | 27.92472 | 125.13675 | 38077 ft | 434 kts | 237° |
| 2026-05-08 06:54 | 27.88636 | 125.08385 | 38055 ft | 434 kts | 237° |
| 2026-05-08 06:55 | 27.84818 | 125.03128 | 38073 ft | 435 kts | 237° |
| 2026-05-08 06:55 | 27.80979 | 124.97846 | 38083 ft | 435 kts | 237° |
| 2026-05-08 06:56 | 27.77131 | 124.92559 | 38076 ft | 436 kts | 237° |
| 2026-05-08 06:56 | 27.73270 | 124.87261 | 38076 ft | 436 kts | 237° |
| 2026-05-08 06:57 | 27.69438 | 124.82008 | 38066 ft | 436 kts | 237° |
| 2026-05-08 06:57 | 27.65580 | 124.76724 | 38073 ft | 436 kts | 237° |
| 2026-05-08 06:58 | 27.61714 | 124.71438 | 38087 ft | 436 kts | 237° |
| 2026-05-08 06:58 | 27.57852 | 124.66152 | 38081 ft | 437 kts | 237° |
| 2026-05-08 06:59 | 27.53988 | 124.60861 | 38073 ft | 437 kts | 237° |
| 2026-05-08 06:59 | 27.50145 | 124.55606 | 38065 ft | 437 kts | 237° |
| 2026-05-08 07:00 | 27.46270 | 124.50314 | 38076 ft | 437 kts | 237° |
| 2026-05-08 07:00 | 27.42398 | 124.45031 | 38081 ft | 438 kts | 237° |
| 2026-05-08 07:01 | 27.38520 | 124.39748 | 38077 ft | 438 kts | 237° |
| 2026-05-08 07:01 | 27.34634 | 124.34459 | 38050 ft | 438 kts | 237° |
| 2026-05-08 07:02 | 27.30767 | 124.29204 | 38070 ft | 438 kts | 237° |
| 2026-05-08 07:02 | 27.26866 | 124.23908 | 38061 ft | 439 kts | 237° |
| 2026-05-08 07:03 | 27.22964 | 124.18617 | 38074 ft | 439 kts | 237° |
| 2026-05-08 07:03 | 27.19076 | 124.13351 | 38072 ft | 440 kts | 237° |
| 2026-05-08 07:04 | 27.15162 | 124.08056 | 38071 ft | 440 kts | 237° |
| 2026-05-08 07:04 | 27.11246 | 124.02763 | 38069 ft | 441 kts | 236° |
| 2026-05-08 07:05 | 27.07977 | 123.98360 | 38063 ft | 442 kts | 236° |
| 2026-05-08 07:05 | 27.04003 | 123.93082 | 38068 ft | 443 kts | 236° |
| 2026-05-08 07:06 | 27.00018 | 123.87810 | 38069 ft | 443 kts | 236° |
| 2026-05-08 07:06 | 26.96021 | 123.82519 | 38054 ft | 443 kts | 236° |
| 2026-05-08 07:07 | 26.92035 | 123.77243 | 38059 ft | 443 kts | 236° |
| 2026-05-08 07:07 | 26.88070 | 123.71999 | 38063 ft | 444 kts | 236° |
| 2026-05-08 07:08 | 26.84076 | 123.66724 | 38068 ft | 444 kts | 236° |
| 2026-05-08 07:08 | 26.80073 | 123.61445 | 38065 ft | 444 kts | 236° |
| 2026-05-08 07:09 | 26.76075 | 123.56176 | 38046 ft | 444 kts | 236° |
| 2026-05-08 07:09 | 26.72097 | 123.50942 | 38050 ft | 444 kts | 236° |
| 2026-05-08 07:10 | 26.68092 | 123.45675 | 38057 ft | 444 kts | 236° |
| 2026-05-08 07:10 | 26.64091 | 123.40422 | 38052 ft | 443 kts | 236° |
| 2026-05-08 07:11 | 26.60086 | 123.35165 | 38038 ft | 443 kts | 236° |
| 2026-05-08 07:11 | 26.56104 | 123.29939 | 38054 ft | 444 kts | 236° |
| 2026-05-08 07:12 | 26.52090 | 123.24678 | 38053 ft | 444 kts | 236° |
| 2026-05-08 07:12 | 26.48075 | 123.19423 | 38051 ft | 445 kts | 236° |
| 2026-05-08 07:13 | 26.44077 | 123.14196 | 38060 ft | 445 kts | 236° |
| 2026-05-08 07:13 | 26.40048 | 123.08932 | 38046 ft | 445 kts | 236° |
| 2026-05-08 07:14 | 26.36017 | 123.03672 | 38051 ft | 446 kts | 236° |
| 2026-05-08 07:14 | 26.31969 | 122.98401 | 38057 ft | 448 kts | 236° |
| 2026-05-08 07:15 | 26.27923 | 122.93159 | 38059 ft | 449 kts | 236° |
| 2026-05-08 07:15 | 26.23831 | 122.87863 | 38056 ft | 451 kts | 236° |
| 2026-05-08 07:16 | 26.19734 | 122.82565 | 38038 ft | 451 kts | 235° |
| 2026-05-08 07:16 | 26.15615 | 122.77242 | 37374 ft | 460 kts | 235° |
| 2026-05-08 07:17 | 26.13519 | 122.74533 | 36692 ft | 459 kts | 235° |
| 2026-05-08 07:17 | 26.11430 | 122.71839 | 35960 ft | 458 kts | 234° |
| 2026-05-08 07:17 | 26.09350 | 122.69160 | 35151 ft | 458 kts | 234° |
| 2026-05-08 07:17 | 26.07289 | 122.66505 | 34291 ft | 460 kts | 234° |
| 2026-05-08 07:18 | 26.05188 | 122.63798 | 33318 ft | 462 kts | 234° |
| 2026-05-08 07:18 | 26.03092 | 122.61104 | 32640 ft | 457 kts | 233° |
| 2026-05-08 07:18 | 26.01017 | 122.58437 | 32017 ft | 453 kts | 233° |
| 2026-05-08 07:18 | 25.98966 | 122.55800 | 31414 ft | 448 kts | 233° |
| 2026-05-08 07:19 | 25.96930 | 122.53183 | 30825 ft | 444 kts | 233° |
| 2026-05-08 07:19 | 25.94915 | 122.50594 | 30225 ft | 441 kts | 233° |
| 2026-05-08 07:19 | 25.92912 | 122.48021 | 29557 ft | 438 kts | 233° |
| 2026-05-08 07:19 | 25.90951 | 122.45497 | 28924 ft | 435 kts | 233° |
| 2026-05-08 07:20 | 25.88979 | 122.42955 | 28308 ft | 432 kts | 233° |
| 2026-05-08 07:20 | 25.87026 | 122.40439 | 27709 ft | 428 kts | 233° |
| 2026-05-08 07:20 | 25.85088 | 122.37943 | 27140 ft | 425 kts | 233° |
| 2026-05-08 07:20 | 25.83167 | 122.35470 | 26552 ft | 422 kts | 232° |
| 2026-05-08 07:21 | 25.81257 | 122.33011 | 25995 ft | 419 kts | 232° |
| 2026-05-08 07:21 | 25.79355 | 122.30566 | 25431 ft | 417 kts | 232° |
| 2026-05-08 07:21 | 25.77458 | 122.28129 | 24867 ft | 416 kts | 232° |
| 2026-05-08 07:21 | 25.75568 | 122.25701 | 24304 ft | 415 kts | 232° |
| 2026-05-08 07:22 | 25.73679 | 122.23276 | 23729 ft | 414 kts | 232° |
| 2026-05-08 07:22 | 25.71825 | 122.20898 | 23099 ft | 413 kts | 231° |
| 2026-05-08 07:22 | 25.69953 | 122.18498 | 22536 ft | 410 kts | 231° |
| 2026-05-08 07:22 | 25.68085 | 122.16104 | 21956 ft | 410 kts | 232° |
| 2026-05-08 07:23 | 25.66223 | 122.13719 | 21398 ft | 407 kts | 232° |
| 2026-05-08 07:23 | 25.64371 | 122.11348 | 20849 ft | 404 kts | 231° |
| 2026-05-08 07:23 | 25.62553 | 122.08995 | 20332 ft | 397 kts | 235° |
| 2026-05-08 07:23 | 25.61181 | 122.06414 | 20140 ft | 386 kts | 250° |
| 2026-05-08 07:24 | 25.60424 | 122.03575 | 20060 ft | 388 kts | 256° |
| 2026-05-08 07:24 | 25.59723 | 122.00679 | 20040 ft | 387 kts | 256° |
| 2026-05-08 07:24 | 25.59018 | 121.97821 | 20033 ft | 381 kts | 256° |
| 2026-05-08 07:24 | 25.58321 | 121.95033 | 20018 ft | 378 kts | 256° |
| 2026-05-08 07:25 | 25.57612 | 121.92229 | 20032 ft | 379 kts | 256° |
| 2026-05-08 07:25 | 25.56894 | 121.89404 | 20036 ft | 383 kts | 255° |
| 2026-05-08 07:25 | 25.55434 | 121.83702 | 20029 ft | 384 kts | 255° |
| 2026-05-08 07:26 | 25.54703 | 121.80854 | 20025 ft | 383 kts | 255° |
| 2026-05-08 07:26 | 25.53983 | 121.78053 | 20020 ft | 382 kts | 255° |
| 2026-05-08 07:26 | 25.53255 | 121.75224 | 19830 ft | 379 kts | 255° |
| 2026-05-08 07:26 | 25.52536 | 121.72431 | 19508 ft | 374 kts | 255° |
| 2026-05-08 07:27 | 25.51826 | 121.69677 | 19103 ft | 370 kts | 255° |
| 2026-05-08 07:27 | 25.51126 | 121.66962 | 18761 ft | 363 kts | 255° |
| 2026-05-08 07:27 | 25.50434 | 121.64279 | 18234 ft | 363 kts | 255° |
| 2026-05-08 07:27 | 25.49742 | 121.61598 | 17791 ft | 359 kts | 255° |
| 2026-05-08 07:28 | 25.49057 | 121.58976 | 17103 ft | 357 kts | 253° |
| 2026-05-08 07:28 | 25.47967 | 121.56499 | 16497 ft | 361 kts | 235° |
| 2026-05-08 07:28 | 25.46339 | 121.54406 | 15934 ft | 360 kts | 231° |
| 2026-05-08 07:28 | 25.44677 | 121.52353 | 15629 ft | 353 kts | 231° |
| 2026-05-08 07:29 | 25.43055 | 121.50309 | 15171 ft | 351 kts | 232° |
| 2026-05-08 07:29 | 25.41467 | 121.48285 | 14750 ft | 347 kts | 231° |
| 2026-05-08 07:29 | 25.39883 | 121.46257 | 14335 ft | 347 kts | 232° |
| 2026-05-08 07:29 | 25.38298 | 121.44228 | 13789 ft | 350 kts | 232° |
| 2026-05-08 07:30 | 25.36710 | 121.42196 | 13295 ft | 349 kts | 231° |
| 2026-05-08 07:30 | 25.35115 | 121.40161 | 12809 ft | 348 kts | 232° |
| 2026-05-08 07:30 | 25.33561 | 121.38182 | 12436 ft | 343 kts | 232° |
| 2026-05-08 07:30 | 25.32008 | 121.36201 | 12131 ft | 337 kts | 231° |
| 2026-05-08 07:31 | 25.30484 | 121.34258 | 11867 ft | 331 kts | 232° |
| 2026-05-08 07:31 | 25.28984 | 121.32343 | 11597 ft | 329 kts | 231° |
| 2026-05-08 07:31 | 25.27464 | 121.30402 | 11353 ft | 337 kts | 230° |
| 2026-05-08 07:31 | 25.25939 | 121.28458 | 11130 ft | 332 kts | 230° |
| 2026-05-08 07:32 | 25.24433 | 121.26541 | 10854 ft | 325 kts | 230° |
| 2026-05-08 07:32 | 25.22987 | 121.24700 | 10608 ft | 318 kts | 230° |
| 2026-05-08 07:32 | 25.21557 | 121.22881 | 10359 ft | 310 kts | 230° |
| 2026-05-08 07:32 | 25.20157 | 121.21102 | 10150 ft | 302 kts | 231° |
| 2026-05-08 07:33 | 25.18795 | 121.19366 | 9936 ft | 295 kts | 231° |
| 2026-05-08 07:33 | 25.17479 | 121.17695 | 9896 ft | 282 kts | 231° |
| 2026-05-08 07:33 | 25.16200 | 121.16071 | 9613 ft | 278 kts | 231° |
| 2026-05-08 07:33 | 25.14959 | 121.14494 | 9468 ft | 269 kts | 231° |
| 2026-05-08 07:34 | 25.13743 | 121.12949 | 9196 ft | 265 kts | 231° |
| 2026-05-08 07:34 | 25.12529 | 121.11404 | 8742 ft | 269 kts | 230° |
| 2026-05-08 07:34 | 25.11300 | 121.09846 | 8373 ft | 269 kts | 231° |
| 2026-05-08 07:34 | 25.10086 | 121.08305 | 8154 ft | 263 kts | 231° |
| 2026-05-08 07:35 | 25.08881 | 121.06774 | 7756 ft | 265 kts | 229° |
| 2026-05-08 07:35 | 25.07661 | 121.05224 | 7286 ft | 270 kts | 229° |
| 2026-05-08 07:35 | 25.06447 | 121.03680 | 7059 ft | 266 kts | 229° |
| 2026-05-08 07:35 | 25.05262 | 121.02175 | 7013 ft | 253 kts | 229° |
| 2026-05-08 07:36 | 25.04125 | 121.00731 | 6929 ft | 245 kts | 229° |
| 2026-05-08 07:36 | 25.03021 | 120.99330 | 6881 ft | 239 kts | 229° |
| 2026-05-08 07:36 | 25.01879 | 120.98030 | 6765 ft | 232 kts | 214° |
| 2026-05-08 07:36 | 25.00444 | 120.97249 | 6611 ft | 228 kts | 195° |
| 2026-05-08 07:37 | 24.98899 | 120.97232 | 6533 ft | 217 kts | 177° |
| 2026-05-08 07:37 | 24.97437 | 120.97414 | 6443 ft | 203 kts | 176° |
| 2026-05-08 07:37 | 24.96102 | 120.97578 | 6295 ft | 190 kts | 175° |
| 2026-05-08 07:37 | 24.94805 | 120.97728 | 5985 ft | 185 kts | 173° |
| 2026-05-08 07:38 | 24.93639 | 120.98294 | 5527 ft | 189 kts | 138° |
| 2026-05-08 07:38 | 24.92760 | 120.99367 | 5147 ft | 189 kts | 133° |
| 2026-05-08 07:38 | 24.92084 | 121.00599 | 4696 ft | 192 kts | 101° |
| 2026-05-08 07:38 | 24.92088 | 121.02043 | 4465 ft | 186 kts | 84° |
| 2026-05-08 07:39 | 24.92213 | 121.03427 | 4171 ft | 181 kts | 77° |
| 2026-05-08 07:39 | 24.92645 | 121.04701 | 3897 ft | 176 kts | 66° |
| 2026-05-08 07:39 | 24.93203 | 121.05861 | 3644 ft | 172 kts | 56° |
| 2026-05-08 07:39 | 24.93923 | 121.06895 | 3474 ft | 167 kts | 53° |
| 2026-05-08 07:40 | 24.94663 | 121.07872 | 3236 ft | 169 kts | 52° |
| 2026-05-08 07:40 | 24.95436 | 121.08866 | 3055 ft | 167 kts | 52° |
| 2026-05-08 07:40 | 24.96213 | 121.09854 | 2980 ft | 172 kts | 53° |
| 2026-05-08 07:40 | 24.96998 | 121.10862 | 2738 ft | 174 kts | 49° |
| 2026-05-08 07:41 | 24.97797 | 121.11858 | 2511 ft | 169 kts | 52° |
| 2026-05-08 07:41 | 24.98536 | 121.12791 | 2306 ft | 155 kts | 52° |
| 2026-05-08 07:41 | 24.99250 | 121.13700 | 2128 ft | 157 kts | 52° |
| 2026-05-08 07:41 | 24.99962 | 121.14605 | 1912 ft | 152 kts | 51° |
| 2026-05-08 07:42 | 25.00625 | 121.15436 | 1707 ft | 137 kts | 51° |
| 2026-05-08 07:42 | 25.01235 | 121.16208 | 1539 ft | 132 kts | 51° |
| 2026-05-08 07:42 | 25.01839 | 121.16976 | 1360 ft | 132 kts | 50° |
| 2026-05-08 07:42 | 25.02445 | 121.17745 | 1198 ft | 135 kts | 50° |
| 2026-05-08 07:43 | 25.03072 | 121.18539 | 1032 ft | 138 kts | 50° |
| 2026-05-08 07:43 | 25.03695 | 121.19328 | 862 ft | 137 kts | 49° |
| 2026-05-08 07:43 | 25.04316 | 121.20111 | 647 ft | 135 kts | 46° |
| 2026-05-08 07:43 | 25.04924 | 121.20877 | 478 ft | 136 kts | 47° |
| 2026-05-08 07:44 | 25.05546 | 121.21666 | 351 ft | 136 kts | 49° |
| 2026-05-08 07:44 | 25.06137 | 121.22418 | 136 ft | 124 kts | 50° |
| 2026-05-08 07:44 | 25.06666 | 121.23094 | 100 ft | 99 kts | 49° |
| 2026-05-08 07:44 | 25.07019 | 121.23540 | 101 ft | 55 kts | 49° |
| 2026-05-08 07:45 | 25.07231 | 121.23714 | 101 ft | 33 kts | 21° |
| 2026-05-08 07:45 | 25.07430 | 121.23785 | 106 ft | 20 kts | 18° |
| 2026-05-08 07:45 | 25.07498 | 121.23786 | 106 ft | 7 kts | 332° |
| 2026-05-08 07:45 | 25.07544 | 121.23748 | 106 ft | 10 kts | 321° |
| 2026-05-08 07:46 | 25.07635 | 121.23698 | 108 ft | 17 kts | 9° |
| 2026-05-08 07:46 | 25.07715 | 121.23781 | 106 ft | 16 kts | 49° |
| 2026-05-08 07:46 | 25.07788 | 121.23874 | 108 ft | 16 kts | 49° |
| 2026-05-08 07:46 | 25.07860 | 121.23967 | 108 ft | 16 kts | 50° |
| 2026-05-08 07:47 | 25.07930 | 121.24042 | 107 ft | 9 kts | 13° |
| 2026-05-08 07:47 | 25.07982 | 121.24015 | 108 ft | 9 kts | 320° |
| 2026-05-08 07:47 | 25.08028 | 121.23972 | 106 ft | 9 kts | 319° |
| 2026-05-08 07:47 | 25.08031 | 121.23968 | 109 ft | 0 kts | 319° |